Time;durP1;ratioP1;P1;durP2;ratioP2;P2;SDS_P1;SDS_P2;PMS_P1;PMS_P2;Temp;Humidity;BMP_temperature;BMP_pressure;BME280_temperature;BME280_humidity;BME280_pressure;Samples;Min_cycle;Max_cycle;Signal;HPM_P1;HPM_P2
2023/04/01 00:01:14;;;;;;;13.88;6.43;;;10.40;99.90;;;;;;5044452;28;20879;-69
2023/04/01 00:03:41;;;;;;;8.30;6.10;;;10.40;99.90;;;;;;5013217;28;20206;-69
2023/04/01 00:06:08;;;;;;;9.60;6.72;;;10.40;99.90;;;;;;5042419;28;20656;-69
2023/04/01 00:08:35;;;;;;;9.63;6.22;;;10.40;99.90;;;;;;5037464;28;20381;-68
2023/04/01 00:11:02;;;;;;;8.70;6.70;;;10.30;99.90;;;;;;5017464;28;20216;-69
2023/04/01 00:13:28;;;;;;;11.35;7.07;;;10.40;99.90;;;;;;5035501;28;20197;-69
2023/04/01 00:15:56;;;;;;;9.32;7.18;;;10.40;99.90;;;;;;5030519;28;20788;-69
2023/04/01 00:18:25;;;;;;;10.88;6.93;;;10.30;99.90;;;;;;5035732;28;20189;-69
2023/04/01 00:20:53;;;;;;;11.68;7.95;;;10.30;99.90;;;;;;5023221;28;20465;-69
2023/04/01 00:23:20;;;;;;;10.80;7.25;;;10.30;99.90;;;;;;5036208;28;20203;-69
2023/04/01 00:25:47;;;;;;;10.85;7.65;;;10.40;99.90;;;;;;5030401;28;20197;-69
2023/04/01 00:28:14;;;;;;;10.27;7.60;;;10.40;99.90;;;;;;5030025;28;20216;-69
2023/04/01 00:30:41;;;;;;;11.18;7.38;;;10.30;99.90;;;;;;5037849;28;20197;-69
2023/04/01 00:33:08;;;;;;;9.32;6.95;;;10.30;99.90;;;;;;5046893;28;20254;-68
2023/04/01 00:35:36;;;;;;;11.27;7.20;;;10.30;99.90;;;;;;5005852;28;20209;-69
2023/04/01 00:38:04;;;;;;;10.45;7.00;;;10.30;99.90;;;;;;5031965;28;20225;-69
2023/04/01 00:40:34;;;;;;;10.70;6.90;;;10.30;99.90;;;;;;5025825;28;20200;-69
2023/04/01 00:43:01;;;;;;;10.48;6.57;;;10.30;99.90;;;;;;5037567;28;20284;-69
2023/04/01 00:45:32;;;;;;;8.55;7.18;;;10.30;99.90;;;;;;5031062;28;20581;-69
2023/04/01 00:48:03;;;;;;;12.60;6.88;;;10.30;99.90;;;;;;5042312;28;20201;-69
2023/04/01 00:50:32;;;;;;;9.98;6.80;;;10.30;99.90;;;;;;5011244;28;20209;-69
2023/04/01 00:53:01;;;;;;;13.57;8.05;;;10.30;99.90;;;;;;5042686;28;20201;-69
2023/04/01 00:55:31;;;;;;;11.63;7.00;;;10.40;99.90;;;;;;5043928;28;20197;-69
2023/04/01 00:57:59;;;;;;;10.27;7.05;;;10.40;99.90;;;;;;5042108;28;20220;-69
2023/04/01 01:00:26;;;;;;;11.05;7.28;;;10.40;99.90;;;;;;5034919;28;20331;-69
2023/04/01 01:02:53;;;;;;;10.90;8.32;;;10.40;99.90;;;;;;5039623;28;20270;-69
2023/04/01 01:05:30;;;;;;;10.50;7.75;;;10.40;99.90;;;;;;5043576;28;20212;-69
2023/04/01 01:08:08;;;;;;;11.32;7.65;;;10.30;99.90;;;;;;5022889;28;20504;-69
2023/04/01 01:10:38;;;;;;;10.05;8.20;;;10.40;99.90;;;;;;5029251;28;20568;-69
2023/04/01 01:13:11;;;;;;;11.68;7.85;;;10.40;99.90;;;;;;5039031;28;20201;-69
2023/04/01 01:15:45;;;;;;;10.10;6.97;;;10.30;99.90;;;;;;5020743;28;20242;-69
2023/04/01 01:18:19;;;;;;;10.70;7.18;;;10.40;99.90;;;;;;5052050;28;20216;-69
2023/04/01 01:21:17;;;;;;;9.98;7.68;;;10.40;99.90;;;;;;5046765;28;20603;-69
2023/04/01 01:24:28;;;;;;;7.97;7.07;;;10.40;99.90;;;;;;5006057;28;20667;-69
2023/04/01 01:27:01;;;;;;;9.23;7.85;;;10.40;99.90;;;;;;5050245;28;20208;-69
2023/04/01 01:30:07;;;;;;;10.52;7.10;;;10.40;99.90;;;;;;5037655;28;20250;-69
2023/04/01 01:33:05;;;;;;;8.50;7.25;;;10.40;99.90;;;;;;5047400;28;20240;-69
2023/04/01 01:35:35;;;;;;;9.43;7.57;;;10.30;99.90;;;;;;5040995;28;20672;-69
2023/04/01 01:38:05;;;;;;;11.02;7.32;;;10.40;99.90;;;;;;5015505;28;20225;-69
2023/04/01 01:40:35;;;;;;;9.40;6.80;;;10.30;99.90;;;;;;5030792;28;20202;-69
2023/04/01 01:43:06;;;;;;;8.98;6.70;;;10.30;99.90;;;;;;5048083;28;20224;-69
2023/04/01 01:45:35;;;;;;;9.63;6.07;;;10.40;99.90;;;;;;5027602;28;20578;-69
2023/04/01 01:48:05;;;;;;;7.40;6.43;;;10.40;99.90;;;;;;5042434;28;20676;-69
2023/04/01 01:50:35;;;;;;;9.40;7.10;;;10.30;99.90;;;;;;5046266;28;20834;-69
2023/04/01 01:53:03;;;;;;;8.40;6.60;;;10.30;99.90;;;;;;5007291;28;20212;-68
2023/04/01 01:55:32;;;;;;;8.43;5.93;;;10.40;99.90;;;;;;5039432;28;20197;-69
2023/04/01 01:58:03;;;;;;;8.32;5.85;;;10.40;99.90;;;;;;5044092;28;20243;-68
2023/04/01 02:00:30;;;;;;;8.57;6.32;;;10.40;99.90;;;;;;5030073;28;20311;-69
2023/04/01 02:02:59;;;;;;;9.60;6.75;;;10.40;99.90;;;;;;5033189;28;20489;-69
2023/04/01 02:05:29;;;;;;;7.57;6.45;;;10.40;99.90;;;;;;5033090;28;20215;-69
2023/04/01 02:08:04;;;;;;;8.90;6.53;;;10.40;99.90;;;;;;5033437;28;20212;-69
2023/04/01 02:10:34;;;;;;;7.50;5.88;;;10.40;99.90;;;;;;5009997;28;20304;-69
2023/04/01 02:13:08;;;;;;;10.40;7.05;;;10.40;99.90;;;;;;5033819;28;20208;-69
2023/04/01 02:15:41;;;;;;;7.90;6.32;;;10.40;99.90;;;;;;5030958;28;20209;-69
2023/04/01 02:18:08;;;;;;;7.90;6.18;;;10.40;99.90;;;;;;5036159;28;20233;-69
2023/04/01 02:20:38;;;;;;;7.32;6.05;;;10.40;99.90;;;;;;5043563;28;20193;-69
2023/04/01 02:23:08;;;;;;;8.73;6.30;;;10.40;99.90;;;;;;5046200;28;20275;-69
2023/04/01 02:25:37;;;;;;;8.75;6.53;;;10.30;99.90;;;;;;5007984;28;20244;-69
2023/04/01 02:28:07;;;;;;;8.85;6.43;;;10.30;99.90;;;;;;5045497;28;20659;-69
2023/04/01 02:30:37;;;;;;;9.10;7.25;;;10.40;99.90;;;;;;5033034;28;20200;-69
2023/04/01 02:33:06;;;;;;;9.70;6.70;;;10.40;99.90;;;;;;5043985;28;20213;-69
2023/04/01 02:35:34;;;;;;;9.52;6.80;;;10.30;99.90;;;;;;5035639;28;20196;-69
2023/04/01 02:38:02;;;;;;;10.27;7.43;;;10.40;99.90;;;;;;5041428;28;20225;-69
2023/04/01 02:40:30;;;;;;;18.88;10.77;;;10.40;99.90;;;;;;5013080;28;20205;-69
2023/04/01 02:42:57;;;;;;;24.15;11.07;;;10.40;99.90;;;;;;5045715;28;20295;-69
2023/04/01 02:45:24;;;;;;;36.63;14.68;;;10.30;99.90;;;;;;5047162;28;20204;-69
2023/04/01 02:47:50;;;;;;;22.98;10.40;;;10.30;99.90;;;;;;5032400;28;20212;-69
2023/04/01 02:50:17;;;;;;;13.55;8.48;;;10.40;99.90;;;;;;5040237;28;20208;-69
2023/04/01 02:52:44;;;;;;;9.27;6.90;;;10.30;99.90;;;;;;5029246;28;20208;-69
2023/04/01 02:55:11;;;;;;;9.05;6.38;;;10.30;99.90;;;;;;5049407;28;20197;-69
2023/04/01 02:57:39;;;;;;;8.77;6.97;;;10.30;99.90;;;;;;5009676;28;20742;-69
2023/04/01 03:00:11;;;;;;;9.70;7.22;;;10.30;99.90;;;;;;5038395;28;20783;-69
2023/04/01 03:02:38;;;;;;;9.00;6.82;;;10.30;99.90;;;;;;5034394;28;20197;-69
2023/04/01 03:05:06;;;;;;;10.02;6.90;;;10.30;99.90;;;;;;5037465;28;20222;-69
2023/04/01 03:07:33;;;;;;;12.02;7.97;;;10.30;99.90;;;;;;5045209;28;20197;-69
2023/04/01 03:10:00;;;;;;;21.13;10.20;;;10.30;99.90;;;;;;5026408;28;20208;-69
2023/04/01 03:12:27;;;;;;;24.25;12.10;;;10.30;99.90;;;;;;5012798;28;20208;-69
2023/04/01 03:14:55;;;;;;;41.90;18.95;;;10.40;99.90;;;;;;5037665;28;20378;-69
2023/04/01 03:17:22;;;;;;;33.38;14.63;;;10.30;99.90;;;;;;5033915;28;20216;-68
2023/04/01 03:19:49;;;;;;;14.15;8.77;;;10.30;99.90;;;;;;5044515;28;20757;-69
2023/04/01 03:22:16;;;;;;;10.77;8.45;;;10.30;99.90;;;;;;5034639;28;20200;-69
2023/04/01 03:24:42;;;;;;;12.40;7.78;;;10.30;99.90;;;;;;5041329;28;20364;-69
2023/04/01 03:27:09;;;;;;;10.02;7.88;;;10.30;99.90;;;;;;5017298;28;20907;-69
2023/04/01 03:29:36;;;;;;;14.95;8.27;;;10.30;99.90;;;;;;5033902;28;20204;-69
2023/04/01 03:32:04;;;;;;;10.45;8.02;;;10.30;99.90;;;;;;5031537;28;20221;-69
2023/04/01 03:34:31;;;;;;;9.77;7.35;;;10.30;99.90;;;;;;5043673;28;20235;-69
2023/04/01 03:36:58;;;;;;;8.98;7.18;;;10.30;99.90;;;;;;5030522;28;20201;-69
2023/04/01 03:39:25;;;;;;;8.85;7.20;;;10.30;99.90;;;;;;5033472;28;20189;-69
2023/04/01 03:41:52;;;;;;;8.07;6.95;;;10.30;99.90;;;;;;5025406;28;20552;-69
2023/04/01 03:44:18;;;;;;;9.57;7.15;;;10.30;99.90;;;;;;5008887;28;20212;-69
2023/04/01 03:46:45;;;;;;;10.00;7.90;;;10.30;99.90;;;;;;5035968;28;20747;-69
2023/04/01 03:49:13;;;;;;;10.27;7.97;;;10.30;99.90;;;;;;5026889;28;21763;-69
2023/04/01 03:51:41;;;;;;;10.77;7.55;;;10.30;99.90;;;;;;5027675;28;20572;-69
2023/04/01 03:54:08;;;;;;;11.32;8.05;;;10.30;99.90;;;;;;5039446;28;20189;-69
2023/04/01 03:56:34;;;;;;;10.65;7.82;;;10.30;99.90;;;;;;5036312;28;20196;-69
2023/04/01 03:59:03;;;;;;;11.77;8.43;;;10.20;99.90;;;;;;5002373;28;20232;-69
2023/04/01 04:01:30;;;;;;;11.13;8.13;;;10.30;99.90;;;;;;5033599;28;20703;-69
2023/04/01 04:03:58;;;;;;;8.98;7.40;;;10.20;99.90;;;;;;5028510;28;20228;-69
2023/04/01 04:06:26;;;;;;;11.25;7.35;;;10.20;99.90;;;;;;5041893;28;20278;-69
2023/04/01 04:08:53;;;;;;;11.40;7.68;;;10.20;99.90;;;;;;5022856;28;20414;-69
2023/04/01 04:11:21;;;;;;;10.82;7.40;;;10.20;99.90;;;;;;5019351;28;20201;-69
2023/04/01 04:13:48;;;;;;;9.68;7.55;;;10.20;99.90;;;;;;5006208;28;20508;-69
2023/04/01 04:16:16;;;;;;;10.95;7.78;;;10.20;99.90;;;;;;5026271;28;20711;-69
2023/04/01 04:18:42;;;;;;;11.70;8.13;;;10.20;99.90;;;;;;5026977;28;20724;-69
2023/04/01 04:21:13;;;;;;;9.05;7.47;;;10.30;99.90;;;;;;5038276;28;20212;-69
2023/04/01 04:23:41;;;;;;;10.73;8.07;;;10.20;99.90;;;;;;5025603;28;20476;-69
2023/04/01 04:26:10;;;;;;;12.30;7.85;;;10.30;99.90;;;;;;5039712;28;21593;-68
2023/04/01 04:28:37;;;;;;;12.60;8.23;;;10.20;99.90;;;;;;5005895;28;20197;-69
2023/04/01 04:31:04;;;;;;;9.93;7.68;;;10.20;99.90;;;;;;5038324;28;20200;-69
2023/04/01 04:35:27;;;;;;;8.75;7.75;;;10.20;99.90;;;;;;5046126;27;20650;-69
2023/04/01 04:37:54;;;;;;;12.25;8.40;;;10.30;99.90;;;;;;5034470;28;20198;-69
2023/04/01 04:40:20;;;;;;;15.40;9.90;;;10.30;99.90;;;;;;5033468;28;20200;-69
2023/04/01 04:42:47;;;;;;;11.55;9.60;;;10.20;99.90;;;;;;5037431;28;20200;-69
2023/04/01 04:45:14;;;;;;;11.63;8.63;;;10.20;99.90;;;;;;5007642;28;20580;-68
2023/04/01 04:47:41;;;;;;;14.55;9.63;;;10.20;99.90;;;;;;5023532;28;20193;-69
2023/04/01 04:50:09;;;;;;;14.07;9.00;;;10.20;99.90;;;;;;5031005;28;20212;-69
2023/04/01 04:52:37;;;;;;;11.25;7.97;;;10.20;99.90;;;;;;5038008;28;20673;-69
2023/04/01 04:55:05;;;;;;;13.60;8.25;;;10.20;99.90;;;;;;5011860;28;20224;-69
2023/04/01 04:57:32;;;;;;;9.63;7.88;;;10.20;99.90;;;;;;5038704;28;20666;-69
2023/04/01 04:59:59;;;;;;;10.20;7.80;;;10.20;99.90;;;;;;5011664;28;20716;-69
2023/04/01 05:02:25;;;;;;;11.00;8.18;;;10.30;99.90;;;;;;5044003;28;20220;-69
2023/04/01 05:04:52;;;;;;;11.82;7.63;;;10.20;99.90;;;;;;5018913;28;20236;-69
2023/04/01 05:07:19;;;;;;;10.43;7.97;;;10.20;99.90;;;;;;5044770;28;20186;-68
2023/04/01 05:09:47;;;;;;;10.85;7.93;;;10.20;99.90;;;;;;5026793;28;20201;-69
2023/04/01 05:12:14;;;;;;;12.15;8.45;;;10.20;99.90;;;;;;5029540;28;20200;-69
2023/04/01 05:14:41;;;;;;;12.05;8.35;;;10.20;99.90;;;;;;5004889;28;20257;-69
2023/04/01 05:17:10;;;;;;;11.98;8.52;;;10.20;99.90;;;;;;5028710;28;20196;-69
2023/04/01 05:19:36;;;;;;;12.35;8.63;;;10.20;99.90;;;;;;5028497;28;20196;-69
2023/04/01 05:22:03;;;;;;;9.38;7.05;;;10.20;99.90;;;;;;5031394;28;20227;-69
2023/04/01 05:24:31;;;;;;;12.20;6.80;;;10.20;99.90;;;;;;5040711;28;20197;-69
2023/04/01 05:26:59;;;;;;;9.50;7.18;;;10.20;99.90;;;;;;5021186;28;20600;-69
2023/04/01 05:29:27;;;;;;;7.93;6.70;;;10.20;99.90;;;;;;5033477;28;20205;-69
2023/04/01 05:31:54;;;;;;;8.73;6.63;;;10.20;99.90;;;;;;4999276;28;20197;-69
2023/04/01 05:34:20;;;;;;;11.95;6.30;;;10.20;99.90;;;;;;5027656;28;20240;-69
2023/04/01 05:36:47;;;;;;;8.98;6.65;;;10.20;99.90;;;;;;5034892;28;20256;-69
2023/04/01 05:39:14;;;;;;;7.82;6.32;;;10.10;99.90;;;;;;5036025;28;20306;-69
2023/04/01 05:41:41;;;;;;;7.95;6.32;;;10.20;99.90;;;;;;5031477;28;20205;-69
2023/04/01 05:44:13;;;;;;;9.20;6.80;;;10.20;99.90;;;;;;5038082;28;20197;-69
2023/04/01 05:46:39;;;;;;;9.95;6.75;;;10.20;99.90;;;;;;4988074;28;20217;-69
2023/04/01 05:49:06;;;;;;;8.35;6.43;;;10.20;99.90;;;;;;5017688;28;20401;-69
2023/04/01 05:51:33;;;;;;;9.93;6.97;;;10.20;99.90;;;;;;5004015;28;20213;-69
2023/04/01 05:54:00;;;;;;;8.63;5.93;;;10.20;99.90;;;;;;5004868;28;20225;-69
2023/04/01 05:56:26;;;;;;;8.02;6.03;;;10.20;99.90;;;;;;5022536;28;20201;-69
2023/04/01 05:58:54;;;;;;;8.68;6.60;;;10.20;99.90;;;;;;5009611;28;20585;-69
2023/04/01 06:01:23;;;;;;;9.18;5.93;;;10.20;99.90;;;;;;5022629;28;20280;-69
2023/04/01 06:03:49;;;;;;;10.13;6.20;;;10.20;99.90;;;;;;4987278;28;20216;-69
2023/04/01 06:06:24;;;;;;;7.82;5.85;;;10.20;99.90;;;;;;5010667;28;20739;-69
2023/04/01 06:08:52;;;;;;;8.15;5.88;;;10.20;99.90;;;;;;4995160;28;20665;-69
2023/04/01 06:11:27;;;;;;;9.57;6.38;;;10.30;99.90;;;;;;5010985;28;20591;-69
2023/04/01 06:14:08;;;;;;;8.18;5.75;;;10.20;99.90;;;;;;5001174;28;20228;-69
2023/04/01 06:16:47;;;;;;;10.82;6.07;;;10.30;99.90;;;;;;5030813;28;20192;-69
2023/04/01 06:19:28;;;;;;;7.88;6.03;;;10.30;99.90;;;;;;4986781;28;20233;-69
2023/04/01 06:22:18;;;;;;;7.50;5.97;;;10.20;99.90;;;;;;5017610;28;20313;-69
2023/04/01 06:25:10;;;;;;;7.40;5.43;;;10.20;99.90;;;;;;5013137;28;20371;-69
2023/04/01 06:27:49;;;;;;;6.05;5.43;;;10.30;99.90;;;;;;5024137;28;20208;-69
2023/04/01 06:30:34;;;;;;;6.68;5.38;;;10.30;99.90;;;;;;5016526;28;20232;-69
2023/04/01 06:33:18;;;;;;;6.25;5.57;;;10.30;99.90;;;;;;5027517;28;20435;-69
2023/04/01 06:36:16;;;;;;;6.13;5.00;;;10.30;99.90;;;;;;4989402;28;20217;-69
2023/04/01 06:39:00;;;;;;;6.63;5.30;;;10.30;99.90;;;;;;5003928;28;20279;-69
2023/04/01 06:42:19;;;;;;;7.57;5.00;;;10.30;99.90;;;;;;5024771;28;20647;-69
2023/04/01 06:44:57;;;;;;;7.63;5.00;;;10.30;99.90;;;;;;4952696;28;20751;-69
2023/04/01 06:47:34;;;;;;;7.10;4.90;;;10.30;99.90;;;;;;5012394;28;20590;-69
2023/04/01 06:50:10;;;;;;;5.70;4.90;;;10.30;99.90;;;;;;4986717;28;20225;-69
2023/04/01 06:52:48;;;;;;;5.45;4.82;;;10.30;99.90;;;;;;5013542;28;20323;-69
2023/04/01 06:55:26;;;;;;;6.13;4.85;;;10.30;99.90;;;;;;5008099;28;20220;-69
2023/04/01 06:57:56;;;;;;;4.95;4.07;;;10.30;99.90;;;;;;5019689;28;20236;-69
2023/04/01 07:00:29;;;;;;;5.97;4.75;;;10.30;99.90;;;;;;5011815;28;20201;-69
2023/04/01 07:03:05;;;;;;;8.32;4.65;;;10.30;99.90;;;;;;5015652;28;20334;-69
2023/04/01 07:05:35;;;;;;;4.60;3.97;;;10.30;99.90;;;;;;4988997;28;20224;-69
2023/04/01 07:08:05;;;;;;;5.07;4.25;;;10.30;99.90;;;;;;4979400;28;20693;-69
2023/04/01 07:10:42;;;;;;;5.53;4.05;;;10.30;99.90;;;;;;5006845;28;20251;-69
2023/04/01 07:13:16;;;;;;;6.13;4.03;;;10.30;99.90;;;;;;5010749;28;20201;-69
2023/04/01 07:15:45;;;;;;;5.15;3.92;;;10.40;99.90;;;;;;4998145;28;20244;-69
2023/04/01 07:18:17;;;;;;;5.35;3.63;;;10.40;99.90;;;;;;5015540;28;20217;-69
2023/04/01 07:20:46;;;;;;;4.85;3.92;;;10.40;99.90;;;;;;4977336;28;20229;-68
2023/04/01 07:23:21;;;;;;;3.80;3.38;;;10.40;99.90;;;;;;4990121;28;20221;-69
2023/04/01 07:25:53;;;;;;;5.13;3.95;;;10.40;99.90;;;;;;5002615;28;20820;-69
2023/04/01 07:28:21;;;;;;;4.47;3.40;;;10.40;99.90;;;;;;5015177;28;21451;-69
2023/04/01 07:30:59;;;;;;;5.57;3.58;;;10.40;99.90;;;;;;5001737;28;20228;-69
2023/04/01 07:33:34;;;;;;;3.95;3.55;;;10.40;99.90;;;;;;5018028;28;20229;-69
2023/04/01 07:36:09;;;;;;;7.10;3.72;;;10.40;99.90;;;;;;4985016;28;20228;-69
2023/04/01 07:38:47;;;;;;;6.07;3.60;;;10.50;99.90;;;;;;5014601;28;20231;-69
2023/04/01 07:41:25;;;;;;;5.10;3.33;;;10.40;99.90;;;;;;5009589;28;21878;-69
2023/04/01 07:44:04;;;;;;;4.00;3.60;;;10.50;99.90;;;;;;5003083;28;20228;-69
2023/04/01 07:46:56;;;;;;;6.32;3.33;;;10.50;99.90;;;;;;4999822;28;20694;-69
2023/04/01 07:49:31;;;;;;;3.53;3.13;;;10.50;99.90;;;;;;5018966;28;20209;-69
2023/04/01 07:52:06;;;;;;;4.15;3.00;;;10.50;99.90;;;;;;4980834;28;20235;-69
2023/04/01 07:54:40;;;;;;;4.72;3.33;;;10.50;99.90;;;;;;5013589;28;20788;-69
2023/04/01 07:57:13;;;;;;;3.50;3.20;;;10.50;99.90;;;;;;5016006;28;20239;-69
2023/04/01 07:59:49;;;;;;;4.57;3.38;;;10.50;99.90;;;;;;5001134;28;20209;-69
2023/04/01 08:02:28;;;;;;;3.45;2.78;;;10.50;99.90;;;;;;4980849;28;20320;-69
2023/04/01 08:05:05;;;;;;;3.72;3.00;;;10.50;99.90;;;;;;5012326;28;20232;-69
2023/04/01 08:07:41;;;;;;;3.67;3.15;;;10.40;99.90;;;;;;4970036;28;20589;-69
2023/04/01 08:10:14;;;;;;;4.50;3.53;;;10.40;99.90;;;;;;5005032;28;20221;-69
2023/04/01 08:12:52;;;;;;;3.15;2.83;;;10.50;99.90;;;;;;5012072;28;20310;-69
2023/04/01 08:15:26;;;;;;;5.00;3.30;;;10.50;99.90;;;;;;4989262;28;20232;-69
2023/04/01 08:18:03;;;;;;;2.78;2.58;;;10.50;99.90;;;;;;5006213;28;21904;-69
2023/04/01 08:20:37;;;;;;;2.97;2.67;;;10.50;99.90;;;;;;5020060;28;20205;-69
2023/04/01 08:23:11;;;;;;;3.20;2.75;;;10.50;99.90;;;;;;4962237;28;20821;-69
2023/04/01 08:25:41;;;;;;;4.35;2.92;;;10.50;99.90;;;;;;4986369;28;20221;-68
2023/04/01 08:28:15;;;;;;;3.83;2.60;;;10.50;99.90;;;;;;5008879;28;20229;-69
2023/04/01 08:30:46;;;;;;;5.00;3.13;;;10.50;99.90;;;;;;5009635;28;20228;-69
2023/04/01 08:33:20;;;;;;;3.63;2.60;;;10.60;99.90;;;;;;5024037;28;20227;-69
2023/04/01 08:35:52;;;;;;;3.58;3.00;;;10.60;99.90;;;;;;5012794;28;20243;-69
2023/04/01 08:38:24;;;;;;;5.30;2.60;;;10.60;99.90;;;;;;4965239;28;20232;-69
2023/04/01 08:41:04;;;;;;;3.95;2.67;;;10.60;99.90;;;;;;5012521;28;20217;-69
2023/04/01 08:44:05;;;;;;;3.45;3.10;;;10.60;99.90;;;;;;5003398;28;20197;-69
2023/04/01 08:46:56;;;;;;;1.55;1.45;;;10.50;99.90;;;;;;5009329;28;20474;-69
2023/04/01 08:49:41;;;;;;;0.75;0.75;;;10.40;99.90;;;;;;4992556;28;20254;-69
2023/04/01 08:52:24;;;;;;;0.73;0.60;;;10.20;99.90;;;;;;5017307;28;20890;-69
2023/04/01 08:55:23;;;;;;;0.60;0.60;;;9.90;99.90;;;;;;5013031;28;20232;-69
2023/04/01 08:58:03;;;;;;;1.05;0.95;;;9.70;99.90;;;;;;5009582;28;21023;-69
2023/04/01 09:00:33;;;;;;;0.77;0.77;;;9.70;99.90;;;;;;5026812;28;20224;-69
2023/04/01 09:03:35;;;;;;;1.50;0.65;;;9.70;99.90;;;;;;5012006;28;20344;-69
2023/04/01 09:06:26;;;;;;;0.73;0.73;;;9.60;99.90;;;;;;5008329;28;20212;-69
2023/04/01 09:09:18;;;;;;;0.75;0.75;;;9.40;99.90;;;;;;4978933;28;20217;-69
2023/04/01 09:12:07;;;;;;;0.88;0.88;;;9.40;99.90;;;;;;4988239;28;20846;-69
2023/04/01 09:14:53;;;;;;;1.20;1.10;;;9.40;99.90;;;;;;5000857;28;20202;-69
2023/04/01 09:17:43;;;;;;;0.80;0.80;;;9.40;99.90;;;;;;5011039;28;20686;-69
2023/04/01 09:20:26;;;;;;;0.90;0.90;;;9.40;99.90;;;;;;5022935;28;20670;-69
2023/04/01 09:23:11;;;;;;;0.90;0.90;;;9.40;99.90;;;;;;5021817;28;20423;-68
2023/04/01 09:26:01;;;;;;;1.00;1.00;;;9.30;99.90;;;;;;4986852;28;20565;-69
2023/04/01 09:28:38;;;;;;;1.00;1.00;;;9.20;99.90;;;;;;5000378;28;20205;-69
2023/04/01 09:31:25;;;;;;;1.47;1.37;;;9.30;99.90;;;;;;5016651;28;20891;-69
2023/04/01 09:34:16;;;;;;;1.30;1.20;;;9.30;99.90;;;;;;5011587;28;20229;-69
2023/04/01 09:36:47;;;;;;;1.73;1.63;;;9.30;99.90;;;;;;5003288;28;20232;-69
2023/04/01 09:39:37;;;;;;;1.70;1.60;;;9.30;99.90;;;;;;5008580;28;20201;-70
2023/04/01 09:42:16;;;;;;;1.40;1.30;;;9.10;99.90;;;;;;4980611;28;20221;-69
2023/04/01 09:44:49;;;;;;;1.57;1.47;;;9.00;99.90;;;;;;4982987;28;20194;-69
2023/04/01 09:47:29;;;;;;;1.97;1.80;;;9.10;99.90;;;;;;4985190;28;20205;-69
2023/04/01 09:50:30;;;;;;;1.93;1.83;;;9.00;99.90;;;;;;5003451;28;20201;-69
2023/04/01 09:53:08;;;;;;;2.17;1.97;;;9.10;99.90;;;;;;4998989;28;20205;-69
2023/04/01 09:56:19;;;;;;;4.47;2.30;;;9.10;99.90;;;;;;4986682;28;21269;-69
2023/04/01 09:59:26;;;;;;;2.60;2.40;;;9.10;99.90;;;;;;5017034;28;20693;-69
2023/04/01 10:02:26;;;;;;;3.63;3.30;;;9.00;99.90;;;;;;4982862;28;20684;-69
2023/04/01 10:05:38;;;;;;;3.37;3.07;;;9.00;99.90;;;;;;5004771;28;20233;-69
2023/04/01 10:08:37;;;;;;;4.67;3.07;;;9.00;99.90;;;;;;5003223;28;20223;-69
2023/04/01 10:11:45;;;;;;;3.40;3.00;;;9.00;99.90;;;;;;4999692;28;20224;-69
2023/04/01 10:15:07;;;;;;;3.43;3.13;;;9.00;99.90;;;;;;5017930;28;20201;-69
2023/04/01 10:18:27;;;;;;;4.17;3.77;;;9.00;99.90;;;;;;4897281;28;20211;-69
2023/04/01 10:21:14;;;;;;;3.80;3.50;;;8.90;99.90;;;;;;4988392;28;20229;-69
2023/04/01 10:24:11;;;;;;;4.13;3.73;;;8.80;99.90;;;;;;5000776;28;20309;-69
2023/04/01 10:27:11;;;;;;;4.27;3.87;;;9.00;99.90;;;;;;4962584;28;20218;-69
2023/04/01 10:30:18;;;;;;;4.47;4.07;;;8.90;99.90;;;;;;5013110;28;20206;-69
2023/04/01 10:33:15;;;;;;;4.37;3.97;;;8.60;99.90;;;;;;4978987;28;20200;-69
2023/04/01 10:36:30;;;;;;;4.60;4.20;;;8.60;99.90;;;;;;4999488;28;21919;-68
2023/04/01 10:39:35;;;;;;;4.23;3.83;;;8.60;99.90;;;;;;5007490;28;20205;-69
2023/04/01 10:42:44;;;;;;;4.57;4.17;;;8.60;99.90;;;;;;5020233;28;20221;-69
2023/04/01 10:45:45;;;;;;;4.80;4.20;;;8.60;99.90;;;;;;5024989;28;20202;-69
2023/04/01 10:49:05;;;;;;;6.27;4.23;;;8.60;99.90;;;;;;5007204;28;20221;-69
2023/04/01 10:52:14;;;;;;;5.47;3.60;;;8.60;99.90;;;;;;5011298;28;20317;-69
2023/04/01 10:54:48;;;;;;;3.57;3.27;;;8.60;99.90;;;;;;4945501;28;20337;-69
2023/04/01 10:57:46;;;;;;;3.17;2.90;;;8.70;99.90;;;;;;5029060;28;21155;-69
2023/04/01 11:00:39;;;;;;;3.47;3.10;;;8.50;99.90;;;;;;4992248;28;20233;-68
2023/04/01 11:03:43;;;;;;;2.77;2.57;;;8.80;99.90;;;;;;4996922;28;20216;-69
2023/04/01 11:06:54;;;;;;;4.10;3.70;;;8.50;99.90;;;;;;5013519;28;20850;-69
2023/04/01 11:10:13;;;;;;;4.47;3.70;;;8.50;99.90;;;;;;5018274;28;20604;-69
2023/04/01 11:13:22;;;;;;;4.27;3.87;;;8.40;99.90;;;;;;4950951;28;20196;-68
2023/04/01 11:16:23;;;;;;;4.73;4.20;;;8.30;99.90;;;;;;4918142;28;20231;-69
2023/04/01 11:19:30;;;;;;;5.67;4.87;;;8.40;99.90;;;;;;5005395;28;21155;-69
2023/04/01 11:22:36;;;;;;;5.37;4.87;;;8.40;99.90;;;;;;4993908;28;20794;-69
2023/04/01 11:25:20;;;;;;;4.97;4.57;;;8.30;99.90;;;;;;5013088;28;20215;-69
2023/04/01 11:28:07;;;;;;;5.40;4.90;;;8.40;99.90;;;;;;5004963;28;20198;-68
2023/04/01 11:30:50;;;;;;;5.23;4.73;;;8.30;99.90;;;;;;4975956;28;20198;-69
2023/04/01 11:33:22;;;;;;;4.90;4.07;;;8.20;99.90;;;;;;5008473;28;20229;-68
2023/04/01 11:36:12;;;;;;;4.40;4.00;;;8.20;99.90;;;;;;4993306;28;20454;-69
2023/04/01 11:38:58;;;;;;;4.43;4.03;;;8.20;99.90;;;;;;4999883;28;20205;-68
2023/04/01 11:41:34;;;;;;;4.57;4.10;;;8.20;99.90;;;;;;5003137;28;20489;-69
2023/04/01 11:44:19;;;;;;;4.50;3.80;;;8.30;99.90;;;;;;5025270;28;20200;-69
2023/04/01 11:47:10;;;;;;;4.73;4.17;;;8.30;99.90;;;;;;4967988;28;20212;-69
2023/04/01 11:49:58;;;;;;;4.30;3.90;;;8.30;99.90;;;;;;5002365;28;20235;-68
2023/04/01 11:52:52;;;;;;;4.33;3.93;;;8.40;99.90;;;;;;4999409;28;20721;-69
2023/04/01 11:55:31;;;;;;;3.50;3.20;;;8.30;99.90;;;;;;5006556;28;20193;-68
2023/04/01 11:58:25;;;;;;;3.43;3.00;;;8.40;99.90;;;;;;4995110;28;20204;-68
2023/04/01 12:01:04;;;;;;;3.03;2.83;;;8.40;99.90;;;;;;4974903;28;20212;-68
2023/04/01 12:04:07;;;;;;;3.00;2.77;;;8.40;99.90;;;;;;4995471;28;20207;-69
2023/04/01 12:06:44;;;;;;;2.80;2.60;;;8.40;99.90;;;;;;4974659;28;20528;-69
2023/04/01 12:09:19;;;;;;;4.33;2.80;;;8.50;99.90;;;;;;5012355;28;20212;-69
2023/04/01 12:11:55;;;;;;;3.13;2.40;;;8.50;99.90;;;;;;5012673;28;20659;-69
2023/04/01 12:14:35;;;;;;;2.90;2.60;;;8.50;99.90;;;;;;5003474;28;20204;-68
2023/04/01 12:17:09;;;;;;;2.80;2.60;;;8.50;99.90;;;;;;4975538;28;20230;-69
2023/04/01 12:19:48;;;;;;;4.33;2.53;;;8.50;99.90;;;;;;4997069;28;20461;-69
2023/04/01 12:22:29;;;;;;;1.77;1.67;;;8.60;99.90;;;;;;4975715;28;20240;-69
2023/04/01 12:25:06;;;;;;;2.00;1.90;;;8.40;99.90;;;;;;4988911;28;20236;-68
2023/04/01 12:27:54;;;;;;;2.60;2.40;;;8.30;99.90;;;;;;5006108;28;20229;-68
2023/04/01 12:30:54;;;;;;;2.30;2.10;;;8.20;99.90;;;;;;4995977;28;20563;-69
2023/04/01 12:33:44;;;;;;;2.90;2.37;;;8.30;99.90;;;;;;4972005;28;20238;-68
2023/04/01 12:36:33;;;;;;;2.40;2.20;;;8.30;99.90;;;;;;4999282;28;20237;-69
2023/04/01 12:39:21;;;;;;;2.10;2.00;;;8.20;99.90;;;;;;4996903;28;20208;-69
2023/04/01 12:41:54;;;;;;;2.40;2.20;;;8.20;99.90;;;;;;5013390;28;20442;-69
2023/04/01 12:44:45;;;;;;;2.40;2.13;;;8.30;99.90;;;;;;5009064;28;20202;-68
2023/04/01 12:47:27;;;;;;;2.20;2.00;;;8.20;99.90;;;;;;4966649;28;20209;-68
2023/04/01 12:50:10;;;;;;;2.30;2.10;;;8.30;99.90;;;;;;4996781;28;20634;-68
2023/04/01 12:52:51;;;;;;;1.80;1.70;;;8.40;99.90;;;;;;4984944;28;20576;-68
2023/04/01 12:55:37;;;;;;;2.10;1.90;;;8.40;99.90;;;;;;5014018;28;20197;-68
2023/04/01 12:58:53;;;;;;;2.00;1.60;;;8.40;99.90;;;;;;5013202;28;20212;-68
2023/04/01 13:01:53;;;;;;;2.00;1.80;;;8.40;99.90;;;;;;5021745;28;21276;-68
2023/04/01 13:04:52;;;;;;;2.17;1.97;;;8.30;99.90;;;;;;4975064;28;20210;-68
2023/04/01 13:07:46;;;;;;;1.93;1.60;;;8.30;99.90;;;;;;5006500;28;20220;-68
2023/04/01 13:10:28;;;;;;;1.57;1.47;;;8.20;99.90;;;;;;5005279;28;20206;-68
2023/04/01 13:13:23;;;;;;;1.73;1.63;;;8.20;99.90;;;;;;5020165;28;20407;-68
2023/04/01 13:15:55;;;;;;;1.60;1.50;;;8.20;99.90;;;;;;5002868;28;20248;-68
2023/04/01 13:18:30;;;;;;;1.40;1.30;;;8.50;99.90;;;;;;4976115;28;20443;-69
2023/04/01 13:21:07;;;;;;;3.17;2.00;;;8.20;99.90;;;;;;5013033;28;20325;-68
2023/04/01 13:23:46;;;;;;;2.90;1.70;;;8.10;99.90;;;;;;4975857;28;20206;-68
2023/04/01 13:26:23;;;;;;;1.90;1.70;;;8.10;99.90;;;;;;5010233;28;20422;-68
2023/04/01 13:28:57;;;;;;;2.17;1.97;;;8.10;99.90;;;;;;4976773;28;20659;-69
2023/04/01 13:31:51;;;;;;;2.40;2.07;;;8.10;99.90;;;;;;5004291;28;20253;-69
2023/04/01 13:34:28;;;;;;;2.00;1.80;;;8.10;99.90;;;;;;4976437;28;20502;-69
2023/04/01 13:37:05;;;;;;;1.93;1.83;;;8.20;99.90;;;;;;4992860;28;20225;-69
2023/04/01 13:39:48;;;;;;;1.77;1.67;;;8.10;99.90;;;;;;5000077;28;20228;-69
2023/04/01 13:42:24;;;;;;;1.80;1.70;;;8.10;99.90;;;;;;5010444;28;20222;-69
2023/04/01 13:44:55;;;;;;;1.40;1.30;;;8.20;99.90;;;;;;4999411;28;20221;-69